createdAt,value
2023-05-11T00:01:25.781Z,12.23
2023-05-11T00:03:53.244Z,11.50
2023-05-11T00:06:20.855Z,12.48
2023-05-11T00:08:48.030Z,13.75
2023-05-11T00:11:15.218Z,13.70
2023-05-11T00:13:42.208Z,13.30
2023-05-11T00:16:09.503Z,12.00
2023-05-11T00:18:36.750Z,12.90
2023-05-11T00:21:04.027Z,10.60
2023-05-11T00:23:31.254Z,13.00
2023-05-11T00:25:58.559Z,12.25
2023-05-11T00:28:26.011Z,12.17
2023-05-11T00:30:57.515Z,12.45
2023-05-11T00:33:24.935Z,11.70
2023-05-11T00:35:52.382Z,10.02
2023-05-11T00:38:19.363Z,11.73
2023-05-11T00:40:46.798Z,11.63
2023-05-11T00:43:14.121Z,11.90
2023-05-11T00:45:41.652Z,10.07
2023-05-11T00:48:08.901Z,10.02
2023-05-11T00:50:36.316Z,10.05
2023-05-11T00:53:03.728Z,11.20
2023-05-11T00:55:31.644Z,12.70
2023-05-11T00:57:58.959Z,12.07
2023-05-11T01:00:26.428Z,12.63
2023-05-11T01:02:54.207Z,11.07
2023-05-11T01:05:21.618Z,12.20
2023-05-11T01:08:05.861Z,12.98
2023-05-11T01:10:42.468Z,9.75
2023-05-11T01:13:33.069Z,12.85
2023-05-11T01:16:07.339Z,11.93
2023-05-11T01:18:51.829Z,10.47
2023-05-11T01:21:20.328Z,10.95
2023-05-11T01:24:14.940Z,13.18
2023-05-11T01:27:09.569Z,12.88
2023-05-11T01:30:24.614Z,12.65
2023-05-11T01:32:54.436Z,12.00
2023-05-11T01:35:25.071Z,13.13
2023-05-11T01:37:55.789Z,12.10
2023-05-11T01:40:26.451Z,12.35
2023-05-11T01:43:18.739Z,11.65
2023-05-11T01:45:50.464Z,13.47
2023-05-11T01:48:22.836Z,13.18
2023-05-11T01:50:51.469Z,11.90
2023-05-11T01:53:19.891Z,11.55
2023-05-11T01:55:49.437Z,9.88
2023-05-11T01:58:18.113Z,12.03
2023-05-11T02:00:46.272Z,9.75
2023-05-11T02:03:15.520Z,9.40
2023-05-11T02:05:44.022Z,8.95
2023-05-11T02:08:14.270Z,12.05
2023-05-11T02:10:42.468Z,10.80
2023-05-11T02:13:10.622Z,11.45
2023-05-11T02:15:43.173Z,11.75
2023-05-11T02:18:14.768Z,12.23
2023-05-11T02:20:45.217Z,11.95
2023-05-11T02:23:13.572Z,12.30
2023-05-11T02:25:41.852Z,10.90
2023-05-11T02:28:09.310Z,13.50
2023-05-11T02:30:46.817Z,8.68
2023-05-11T02:33:23.946Z,11.80
2023-05-11T02:35:54.331Z,8.87
2023-05-11T02:38:21.820Z,10.93
2023-05-11T02:40:55.328Z,13.23
2023-05-11T02:43:25.568Z,11.18
2023-05-11T02:46:03.860Z,12.85
2023-05-11T02:48:38.553Z,11.17
2023-05-11T02:51:08.259Z,11.05
2023-05-11T02:53:41.794Z,9.15
2023-05-11T02:56:09.377Z,11.95
2023-05-11T02:58:36.801Z,12.05
2023-05-11T03:01:18.350Z,12.00
2023-05-11T03:03:45.879Z,9.73
2023-05-11T03:06:13.523Z,10.57
2023-05-11T03:08:42.009Z,11.35
2023-05-11T03:11:11.012Z,11.48
2023-05-11T03:13:39.357Z,11.27
2023-05-11T03:16:07.824Z,8.60
2023-05-11T03:18:37.058Z,11.18
2023-05-11T03:21:05.679Z,12.07
2023-05-11T03:23:35.126Z,11.98
2023-05-11T03:26:03.995Z,11.80
2023-05-11T03:28:31.904Z,11.05
2023-05-11T03:31:02.698Z,12.05
2023-05-11T03:33:32.301Z,11.25
2023-05-11T03:36:02.766Z,12.02
2023-05-11T03:38:31.194Z,11.40
2023-05-11T03:41:00.706Z,12.15
2023-05-11T03:43:31.959Z,11.70
2023-05-11T03:46:00.469Z,11.65
2023-05-11T03:48:28.779Z,10.93
2023-05-11T03:50:56.710Z,10.87
2023-05-11T03:53:23.985Z,10.68
2023-05-11T03:55:52.867Z,10.63
2023-05-11T03:58:20.319Z,10.90
2023-05-11T04:00:47.661Z,10.25
2023-05-11T04:03:15.108Z,10.63
2023-05-11T04:05:42.749Z,9.75
2023-05-11T04:08:12.601Z,7.88
2023-05-11T04:10:39.935Z,7.32
2023-05-11T04:13:07.281Z,9.85
2023-05-11T04:15:35.543Z,9.23
2023-05-11T04:18:04.181Z,9.85
2023-05-11T04:20:32.430Z,9.20
2023-05-11T04:22:59.894Z,9.20
2023-05-11T04:25:27.525Z,10.50
2023-05-11T04:27:54.773Z,9.60
2023-05-11T04:30:21.927Z,10.90
2023-05-11T04:32:49.334Z,10.55
2023-05-11T04:35:16.310Z,10.38
2023-05-11T04:37:43.607Z,9.82
2023-05-11T04:40:11.621Z,10.27
2023-05-11T04:42:41.298Z,9.02
2023-05-11T04:45:14.060Z,11.63
2023-05-11T04:47:42.349Z,11.93
2023-05-11T04:50:10.603Z,11.52
2023-05-11T04:52:38.074Z,11.07
2023-05-11T04:55:05.303Z,13.18
2023-05-11T04:57:32.236Z,11.18
2023-05-11T04:59:59.508Z,11.52
2023-05-11T05:02:27.168Z,16.52
2023-05-11T05:04:53.975Z,15.93
2023-05-11T05:07:21.306Z,18.80
2023-05-11T05:09:48.721Z,18.25
2023-05-11T05:12:16.284Z,16.70
2023-05-11T05:14:43.600Z,17.75
2023-05-11T05:17:10.706Z,15.60
2023-05-11T05:19:38.511Z,22.83
2023-05-11T05:22:06.319Z,24.13
2023-05-11T05:24:33.651Z,15.30
2023-05-11T05:27:01.399Z,19.48
2023-05-11T05:29:28.634Z,18.20
2023-05-11T05:31:55.858Z,17.85
2023-05-11T05:34:24.663Z,16.08
2023-05-11T05:36:51.945Z,17.42
2023-05-11T05:39:19.248Z,16.33
2023-05-11T05:41:46.659Z,13.93
2023-05-11T05:44:13.556Z,17.73
2023-05-11T05:46:40.966Z,15.45
2023-05-11T05:49:07.979Z,14.45
2023-05-11T05:51:36.933Z,13.80
2023-05-11T05:54:04.215Z,15.57
2023-05-11T05:56:34.931Z,15.52
2023-05-11T05:59:02.200Z,14.48
2023-05-11T06:01:29.776Z,15.88
2023-05-11T06:03:57.242Z,14.93
2023-05-11T06:06:26.034Z,16.00
2023-05-11T06:08:53.767Z,15.40
2023-05-11T06:11:21.774Z,15.85
2023-05-11T06:13:49.201Z,15.25
2023-05-11T06:16:16.054Z,15.07
2023-05-11T06:18:43.409Z,13.97
2023-05-11T06:21:10.942Z,15.20
2023-05-11T06:23:38.322Z,14.35
2023-05-11T06:26:05.623Z,15.55
2023-05-11T06:28:33.778Z,16.17
2023-05-11T06:31:04.554Z,15.07
2023-05-11T06:33:35.519Z,14.82
2023-05-11T06:36:05.892Z,15.45
2023-05-11T06:38:32.803Z,15.18
2023-05-11T06:41:00.101Z,14.25
2023-05-11T06:43:27.366Z,13.27
2023-05-11T06:45:54.665Z,13.02
2023-05-11T06:48:23.602Z,12.13
2023-05-11T06:50:50.525Z,12.65
2023-05-11T06:53:17.969Z,11.95
2023-05-11T06:55:45.025Z,12.30
2023-05-11T06:58:12.004Z,13.18
2023-05-11T07:00:39.659Z,12.85
2023-05-11T07:03:07.558Z,12.82
2023-05-11T07:05:36.748Z,11.18
2023-05-11T07:08:04.854Z,11.30
2023-05-11T07:10:32.559Z,12.00
2023-05-11T07:12:59.390Z,12.10
2023-05-11T07:15:26.690Z,11.93
2023-05-11T07:17:53.799Z,12.90
2023-05-11T07:20:21.298Z,12.33
2023-05-11T07:22:48.681Z,12.80
2023-05-11T07:25:16.083Z,13.25
2023-05-11T07:27:43.002Z,13.55
2023-05-11T07:30:10.627Z,13.00
2023-05-11T07:32:38.695Z,14.07
2023-05-11T07:35:06.122Z,13.80
2023-05-11T07:37:33.347Z,13.82
2023-05-11T07:40:00.685Z,14.15
2023-05-11T07:42:27.702Z,14.25
2023-05-11T07:44:54.972Z,13.30
2023-05-11T07:47:23.442Z,13.90
2023-05-11T07:49:50.805Z,14.68
2023-05-11T07:52:18.208Z,14.25
2023-05-11T07:54:45.727Z,13.48
2023-05-11T07:57:14.046Z,13.73
2023-05-11T07:59:41.167Z,13.73
2023-05-11T08:02:10.961Z,12.93
2023-05-11T08:04:40.661Z,14.27
2023-05-11T08:07:08.985Z,13.52
2023-05-11T08:09:36.849Z,13.70
2023-05-11T08:12:04.653Z,13.00
2023-05-11T08:14:32.238Z,12.82
2023-05-11T08:16:59.227Z,11.60
2023-05-11T08:19:26.715Z,12.57
2023-05-11T08:21:54.045Z,12.83
2023-05-11T08:24:21.280Z,12.88
2023-05-11T08:26:48.475Z,11.98
2023-05-11T08:29:15.385Z,11.02
2023-05-11T08:31:42.808Z,11.05
2023-05-11T08:34:18.670Z,11.20
2023-05-11T08:36:46.877Z,11.00
2023-05-11T08:39:14.245Z,11.88
2023-05-11T08:41:41.130Z,12.18
2023-05-11T08:44:09.177Z,13.15
2023-05-11T08:46:40.047Z,13.20
2023-05-11T08:49:08.197Z,11.68
2023-05-11T08:51:35.078Z,11.73
2023-05-11T08:54:02.292Z,13.52
2023-05-11T08:56:30.467Z,13.63
2023-05-11T08:58:57.967Z,14.17
2023-05-11T09:01:28.995Z,14.88
2023-05-11T09:03:56.964Z,15.93
2023-05-11T09:06:25.038Z,15.23
2023-05-11T09:08:52.576Z,16.17
2023-05-11T09:11:19.693Z,15.00
2023-05-11T09:13:46.943Z,14.75
2023-05-11T09:18:50.645Z,15.50
2023-05-11T09:21:18.439Z,14.57
2023-05-11T09:23:45.790Z,15.60
2023-05-11T09:26:26.320Z,14.65
2023-05-11T09:31:46.442Z,15.27
2023-05-11T09:34:17.454Z,14.80
2023-05-11T09:36:46.285Z,16.30
2023-05-11T09:39:15.874Z,15.65
2023-05-11T09:41:44.003Z,15.25
2023-05-11T09:44:15.771Z,14.23
2023-05-11T09:46:44.666Z,14.30
2023-05-11T09:49:12.526Z,14.53
2023-05-11T09:51:40.787Z,14.40
2023-05-11T09:54:22.753Z,14.70
2023-05-11T09:56:52.502Z,13.57
2023-05-11T09:59:38.167Z,14.05
2023-05-11T10:02:23.431Z,14.87
2023-05-11T10:04:52.340Z,14.65
2023-05-11T10:07:25.293Z,15.30
2023-05-11T10:09:57.907Z,14.05
2023-05-11T10:12:26.232Z,15.10
2023-05-11T10:14:56.745Z,13.97
2023-05-11T10:17:25.173Z,13.05
2023-05-11T10:19:55.671Z,14.73
2023-05-11T10:22:24.906Z,13.85
2023-05-11T10:24:52.390Z,13.70
2023-05-11T10:27:20.152Z,12.20
2023-05-11T10:29:47.903Z,12.93
2023-05-11T10:32:17.845Z,13.65
2023-05-11T10:34:46.613Z,13.80
2023-05-11T10:37:17.393Z,13.15
2023-05-11T10:39:48.436Z,13.13
2023-05-11T10:42:29.145Z,13.85
2023-05-11T10:45:08.579Z,13.52
2023-05-11T10:47:54.306Z,12.93
2023-05-11T10:50:57.406Z,12.23
2023-05-11T10:53:51.702Z,12.80
2023-05-11T10:56:56.059Z,12.70
2023-05-11T10:59:23.408Z,12.32
2023-05-11T11:01:58.919Z,12.50
2023-05-11T11:04:28.108Z,12.30
2023-05-11T11:07:06.773Z,11.90
2023-05-11T11:10:01.088Z,12.65
2023-05-11T11:12:29.716Z,12.30
2023-05-11T11:15:01.124Z,11.82
2023-05-11T11:17:35.864Z,10.23
2023-05-11T11:20:04.359Z,9.70
2023-05-11T11:22:38.637Z,10.73
2023-05-11T11:25:07.766Z,12.15
2023-05-11T11:27:55.925Z,11.32
2023-05-11T11:30:30.655Z,9.20
2023-05-11T11:33:13.097Z,8.13
2023-05-11T11:35:40.621Z,8.88
2023-05-11T11:38:09.302Z,8.40
2023-05-11T11:43:22.087Z,7.70
2023-05-11T11:46:02.922Z,7.20
2023-05-11T11:48:37.639Z,9.15
2023-05-11T11:51:12.469Z,8.13
2023-05-11T11:53:43.697Z,7.72
2023-05-11T11:56:16.985Z,7.60
2023-05-11T11:58:44.554Z,7.43
2023-05-11T12:01:26.813Z,6.82
2023-05-11T12:04:18.302Z,7.20
2023-05-11T12:06:52.003Z,5.60
2023-05-11T12:09:19.445Z,6.13
2023-05-11T12:11:47.705Z,5.30
2023-05-11T12:14:15.357Z,5.97
2023-05-11T12:16:42.600Z,6.70
2023-05-11T12:19:09.857Z,5.80
2023-05-11T12:21:37.533Z,6.88
2023-05-11T12:24:05.786Z,6.10
2023-05-11T12:26:34.455Z,7.07
2023-05-11T12:29:15.963Z,6.97
2023-05-11T12:31:44.754Z,7.05
2023-05-11T12:34:18.805Z,6.55
2023-05-11T12:36:47.493Z,7.30
2023-05-11T12:39:22.675Z,6.75
2023-05-11T12:41:50.980Z,7.18
2023-05-11T12:44:19.250Z,7.47
2023-05-11T12:46:47.551Z,7.20
2023-05-11T12:49:25.852Z,7.37
2023-05-11T12:52:00.020Z,6.43
2023-05-11T12:54:27.572Z,6.28
2023-05-11T12:56:54.875Z,6.20
2023-05-11T12:59:39.763Z,6.00
2023-05-11T13:02:20.917Z,6.13
2023-05-11T13:04:48.559Z,6.00
2023-05-11T13:07:28.634Z,6.07
2023-05-11T13:10:00.371Z,6.75
2023-05-11T13:12:30.227Z,5.85
2023-05-11T13:15:13.474Z,5.70
2023-05-11T13:17:42.285Z,6.15
2023-05-11T13:20:27.297Z,6.00
2023-05-11T13:23:08.040Z,6.63
2023-05-11T13:25:51.726Z,5.57
2023-05-11T13:28:22.013Z,6.30
2023-05-11T13:30:51.431Z,5.90
2023-05-11T13:33:19.203Z,6.03
2023-05-11T13:35:46.396Z,5.95
2023-05-11T13:38:14.471Z,6.70
2023-05-11T13:40:41.805Z,6.17
2023-05-11T13:43:09.059Z,6.30
2023-05-11T13:45:41.115Z,6.63
2023-05-11T13:48:08.645Z,6.65
2023-05-11T13:50:36.023Z,6.28
2023-05-11T13:53:02.973Z,6.60
2023-05-11T13:55:30.268Z,6.63
2023-05-11T13:57:58.106Z,7.10
2023-05-11T14:00:26.266Z,6.97
2023-05-11T14:02:53.716Z,7.70
2023-05-11T14:05:21.067Z,7.50
2023-05-11T14:07:49.135Z,6.63
2023-05-11T14:10:17.372Z,6.93
2023-05-11T14:12:45.349Z,7.80
2023-05-11T14:15:12.768Z,7.45
2023-05-11T14:17:42.678Z,7.60
2023-05-11T14:20:11.559Z,7.22
2023-05-11T14:22:39.229Z,7.38
2023-05-11T14:25:06.813Z,7.28
2023-05-11T14:27:34.082Z,6.47
2023-05-11T14:30:01.358Z,7.33
2023-05-11T14:32:28.305Z,7.00
2023-05-11T14:34:55.940Z,7.43
2023-05-11T14:37:22.839Z,7.53
2023-05-11T14:39:49.743Z,6.75
2023-05-11T14:42:17.035Z,7.47
2023-05-11T14:44:44.388Z,7.03
2023-05-11T14:47:11.566Z,6.55
2023-05-11T14:49:38.351Z,6.72
2023-05-11T14:52:05.421Z,7.50
2023-05-11T14:54:32.323Z,9.90
2023-05-11T14:56:59.740Z,8.15
2023-05-11T14:59:27.240Z,8.43
2023-05-11T15:01:54.528Z,10.65
2023-05-11T15:04:22.262Z,17.60
2023-05-11T15:06:49.603Z,9.10
2023-05-11T15:09:16.890Z,8.63
2023-05-11T15:11:44.183Z,6.78
2023-05-11T15:14:11.401Z,8.85
2023-05-11T15:16:38.673Z,6.50
2023-05-11T15:19:06.600Z,8.50
2023-05-11T15:21:34.003Z,6.32
2023-05-11T15:24:01.238Z,6.90
2023-05-11T15:26:28.657Z,5.95
2023-05-11T15:28:56.283Z,7.05
2023-05-11T15:31:23.600Z,6.47
2023-05-11T15:33:50.920Z,6.43
2023-05-11T15:36:18.281Z,6.50
2023-05-11T15:38:45.548Z,6.15
2023-05-11T15:41:12.925Z,6.93
2023-05-11T15:43:40.545Z,5.93
2023-05-11T15:46:07.939Z,5.38
2023-05-11T15:48:35.300Z,8.95
2023-05-11T15:51:02.930Z,7.20
2023-05-11T15:53:29.873Z,7.75
2023-05-11T15:55:57.482Z,6.57
2023-05-11T15:58:24.579Z,4.88
2023-05-11T16:00:52.044Z,4.55
2023-05-11T16:03:19.809Z,4.38
2023-05-11T16:05:47.472Z,4.35
2023-05-11T16:08:14.672Z,4.13
2023-05-11T16:10:41.596Z,4.43
2023-05-11T16:13:09.425Z,4.18
2023-05-11T16:15:36.714Z,4.60
2023-05-11T16:18:05.019Z,5.38
2023-05-11T16:20:32.460Z,4.53
2023-05-11T16:22:59.375Z,7.38
2023-05-11T16:25:26.291Z,5.32
2023-05-11T16:27:53.226Z,5.45
2023-05-11T16:30:24.953Z,6.78
2023-05-11T16:32:53.288Z,4.33
2023-05-11T16:35:21.239Z,4.38
2023-05-11T16:37:48.416Z,4.55
2023-05-11T16:40:18.984Z,3.95
2023-05-11T16:42:47.369Z,6.22
2023-05-11T16:45:16.392Z,4.77
2023-05-11T16:47:45.413Z,4.47
2023-05-11T16:50:16.826Z,4.40
2023-05-11T16:52:44.153Z,4.50
2023-05-11T16:55:11.627Z,4.80
2023-05-11T16:57:38.904Z,5.30
2023-05-11T17:00:06.486Z,5.10
2023-05-11T17:02:34.004Z,5.97
2023-05-11T17:05:01.526Z,4.70
2023-05-11T17:07:28.885Z,6.05
2023-05-11T17:09:57.201Z,5.90
2023-05-11T17:12:24.800Z,5.25
2023-05-11T17:14:52.501Z,6.05
2023-05-11T17:17:19.377Z,5.10
2023-05-11T17:19:46.651Z,6.50
2023-05-11T17:22:13.987Z,5.20
2023-05-11T17:24:41.256Z,12.40
2023-05-11T17:27:08.529Z,4.82
2023-05-11T17:29:35.665Z,5.22
2023-05-11T17:32:03.550Z,6.05
2023-05-11T17:34:31.169Z,4.63
2023-05-11T17:36:58.481Z,17.67
2023-05-11T17:39:25.733Z,9.55
2023-05-11T17:41:53.242Z,6.70
2023-05-11T17:44:21.296Z,8.20
2023-05-11T17:46:48.845Z,5.50
2023-05-11T17:49:16.071Z,5.28
2023-05-11T17:51:42.915Z,4.65
2023-05-11T17:54:10.322Z,4.22
2023-05-11T17:56:37.753Z,3.45
2023-05-11T17:59:04.604Z,5.00
2023-05-11T18:01:31.845Z,4.57
2023-05-11T18:04:00.724Z,4.40
2023-05-11T18:06:28.855Z,3.17
2023-05-11T18:08:56.548Z,3.75
2023-05-11T18:11:23.988Z,4.17
2023-05-11T18:13:51.373Z,4.43
2023-05-11T18:16:18.335Z,6.18
2023-05-11T18:18:45.390Z,4.80
2023-05-11T18:21:12.662Z,4.50
2023-05-11T18:23:40.040Z,5.00
2023-05-11T18:26:07.665Z,5.80
2023-05-11T18:28:34.982Z,5.18
2023-05-11T18:31:02.081Z,5.13
2023-05-11T18:33:29.326Z,5.18
2023-05-11T18:35:56.675Z,4.30
2023-05-11T18:38:23.914Z,4.97
2023-05-11T18:40:51.335Z,6.03
2023-05-11T18:43:18.619Z,5.97
2023-05-11T18:45:46.358Z,5.53
2023-05-11T18:48:14.239Z,5.40
2023-05-11T18:50:41.862Z,4.60
2023-05-11T18:53:09.116Z,4.30
2023-05-11T18:55:48.970Z,4.35
2023-05-11T18:58:20.512Z,4.93
2023-05-11T19:00:48.743Z,5.10
2023-05-11T19:03:16.684Z,4.45
2023-05-11T19:05:44.855Z,5.20
2023-05-11T19:08:12.541Z,4.68
2023-05-11T19:10:40.502Z,4.95
2023-05-11T19:13:07.680Z,4.97
2023-05-11T19:15:35.076Z,4.97
2023-05-11T19:18:02.818Z,5.85
2023-05-11T19:20:30.127Z,4.88
2023-05-11T19:22:57.848Z,6.03
2023-05-11T19:25:25.076Z,5.30
2023-05-11T19:27:52.347Z,7.00
2023-05-11T19:30:19.895Z,7.07
2023-05-11T19:32:48.760Z,5.57
2023-05-11T19:35:16.773Z,6.57
2023-05-11T19:37:46.249Z,5.03
2023-05-11T19:40:43.865Z,5.47
2023-05-11T19:43:05.040Z,5.00
2023-05-11T19:45:33.161Z,5.60
2023-05-11T19:48:00.792Z,4.90
2023-05-11T19:50:28.322Z,4.90
2023-05-11T19:52:55.256Z,4.82
2023-05-11T19:55:22.579Z,5.72
2023-05-11T19:57:49.838Z,6.45
2023-05-11T20:00:24.703Z,5.65
2023-05-11T20:02:55.231Z,6.20
2023-05-11T20:05:22.689Z,6.00
2023-05-11T20:07:50.137Z,6.10
2023-05-11T20:10:17.634Z,5.68
2023-05-11T20:12:45.107Z,6.53
2023-05-11T20:15:12.415Z,6.13
2023-05-11T20:17:39.750Z,6.05
2023-05-11T20:20:08.611Z,5.55
2023-05-11T20:22:36.717Z,6.25
2023-05-11T20:25:04.853Z,6.22
2023-05-11T20:27:32.150Z,15.40
2023-05-11T20:29:59.386Z,8.82
2023-05-11T20:32:26.855Z,6.75
2023-05-11T20:34:54.179Z,7.43
2023-05-11T20:37:22.019Z,6.22
2023-05-11T20:39:49.327Z,6.90
2023-05-11T20:42:17.144Z,7.07
2023-05-11T20:44:44.215Z,8.25
2023-05-11T20:47:11.236Z,7.88
2023-05-11T20:49:39.561Z,8.15
2023-05-11T20:52:07.640Z,7.93
2023-05-11T20:54:35.787Z,8.43
2023-05-11T20:57:04.147Z,7.82
2023-05-11T21:02:02.017Z,6.88
2023-05-11T21:04:31.118Z,6.70
2023-05-11T21:06:58.409Z,5.85
2023-05-11T21:09:25.833Z,5.90
2023-05-11T21:11:53.190Z,5.53
2023-05-11T21:14:20.590Z,5.43
2023-05-11T21:16:48.087Z,5.33
2023-05-11T21:19:19.529Z,5.40
2023-05-11T21:21:49.434Z,5.65
2023-05-11T21:24:16.995Z,5.90
2023-05-11T21:26:47.238Z,5.90
2023-05-11T21:29:15.495Z,4.60
2023-05-11T21:31:42.871Z,5.28
2023-05-11T21:34:10.171Z,5.10
2023-05-11T21:36:39.002Z,5.72
2023-05-11T21:39:05.937Z,5.43
2023-05-11T21:41:32.788Z,5.93
2023-05-11T21:44:00.170Z,5.80
2023-05-11T21:46:27.149Z,5.97
2023-05-11T21:48:54.394Z,7.05
2023-05-11T21:51:21.918Z,6.85
2023-05-11T21:53:49.202Z,6.53
2023-05-11T21:56:16.491Z,5.90
2023-05-11T21:58:43.730Z,5.72
2023-05-11T22:01:10.955Z,5.70
2023-05-11T22:03:38.014Z,5.95
2023-05-11T22:06:05.407Z,6.40
2023-05-11T22:08:32.840Z,5.38
2023-05-11T22:11:00.029Z,5.95
2023-05-11T22:13:27.920Z,5.20
2023-05-11T22:15:54.809Z,5.70
2023-05-11T22:18:21.721Z,5.73
2023-05-11T22:20:48.678Z,5.43
2023-05-11T22:23:15.931Z,10.98
2023-05-11T22:25:43.383Z,7.60
2023-05-11T22:28:10.632Z,6.13
2023-05-11T22:30:38.163Z,5.93
2023-05-11T22:33:05.247Z,5.90
2023-05-11T22:35:32.355Z,6.70
2023-05-11T22:38:01.664Z,7.28
2023-05-11T22:40:28.958Z,6.50
2023-05-11T22:42:55.789Z,7.17
2023-05-11T22:45:23.093Z,7.03
2023-05-11T22:47:50.365Z,7.25
2023-05-11T22:50:17.972Z,7.10
2023-05-11T22:52:45.446Z,7.50
2023-05-11T22:55:12.339Z,7.43
2023-05-11T22:57:39.618Z,7.13
2023-05-11T23:00:07.058Z,7.20
2023-05-11T23:02:35.960Z,7.70
2023-05-11T23:05:03.530Z,7.13
2023-05-11T23:07:30.960Z,7.13
2023-05-11T23:09:58.154Z,7.55
2023-05-11T23:12:25.381Z,6.95
2023-05-11T23:14:53.069Z,7.05
2023-05-11T23:17:20.406Z,7.07
2023-05-11T23:19:48.147Z,6.90
2023-05-11T23:22:15.542Z,5.95
2023-05-11T23:24:42.752Z,6.32
2023-05-11T23:27:09.954Z,5.97
2023-05-11T23:29:37.321Z,6.15
2023-05-11T23:32:04.681Z,5.63
2023-05-11T23:34:31.937Z,6.10
2023-05-11T23:36:59.333Z,5.45
2023-05-11T23:39:26.169Z,5.43
2023-05-11T23:41:53.057Z,5.50
2023-05-11T23:44:20.261Z,5.30
2023-05-11T23:46:47.298Z,4.78
2023-05-11T23:49:14.537Z,5.07
2023-05-11T23:51:42.007Z,4.95
2023-05-11T23:54:09.204Z,4.38
2023-05-11T23:56:36.479Z,4.67
2023-05-11T23:59:03.774Z,5.28
